sensor_id;sensor_type;location;lat;lon;timestamp;temperature;humidity
5828;DHT22;42583;50.240;8.444;2023-02-24T00:03:20;6.50;99.90
5828;DHT22;42583;50.240;8.444;2023-02-24T00:18:21;6.50;99.90
5828;DHT22;42583;50.240;8.444;2023-02-24T00:33:22;6.40;99.90
5828;DHT22;42583;50.240;8.444;2023-02-24T00:48:23;6.30;99.90
5828;DHT22;42583;50.240;8.444;2023-02-24T01:03:27;6.30;99.90
5828;DHT22;42583;50.240;8.444;2023-02-24T01:18:28;6.20;99.90
5828;DHT22;42583;50.240;8.444;2023-02-24T01:33:31;6.20;99.90
5828;DHT22;42583;50.240;8.444;2023-02-24T01:48:33;6.20;99.90
5828;DHT22;42583;50.240;8.444;2023-02-24T02:03:39;6.20;99.90
5828;DHT22;42583;50.240;8.444;2023-02-24T02:18:59;6.00;99.90
5828;DHT22;42583;50.240;8.444;2023-02-24T02:34:12;6.00;99.90
5828;DHT22;42583;50.240;8.444;2023-02-24T02:49:39;6.00;99.90
5828;DHT22;42583;50.240;8.444;2023-02-24T03:04:50;5.90;99.90
5828;DHT22;42583;50.240;8.444;2023-02-24T03:20:17;5.80;99.90
5828;DHT22;42583;50.240;8.444;2023-02-24T03:50:22;5.40;99.90
5828;DHT22;42583;50.240;8.444;2023-02-24T04:05:25;5.40;99.90
5828;DHT22;42583;50.240;8.444;2023-02-24T04:20:31;5.30;99.90
5828;DHT22;42583;50.240;8.444;2023-02-24T04:35:32;5.30;99.90
5828;DHT22;42583;50.240;8.444;2023-02-24T04:50:35;5.10;99.90
5828;DHT22;42583;50.240;8.444;2023-02-24T05:05:36;5.00;99.90
5828;DHT22;42583;50.240;8.444;2023-02-24T05:20:42;5.00;99.90
5828;DHT22;42583;50.240;8.444;2023-02-24T05:36:06;5.00;99.90
5828;DHT22;42583;50.240;8.444;2023-02-24T05:51:08;5.00;99.90
5828;DHT22;42583;50.240;8.444;2023-02-24T06:06:12;5.00;99.90
5828;DHT22;42583;50.240;8.444;2023-02-24T06:21:14;5.00;99.90
5828;DHT22;42583;50.240;8.444;2023-02-24T06:36:14;4.80;99.90
5828;DHT22;42583;50.240;8.444;2023-02-24T06:51:18;4.80;99.90
5828;DHT22;42583;50.240;8.444;2023-02-24T07:06:19;4.80;99.90
5828;DHT22;42583;50.240;8.444;2023-02-24T07:21:19;4.90;99.90
5828;DHT22;42583;50.240;8.444;2023-02-24T07:36:23;4.90;99.90
5828;DHT22;42583;50.240;8.444;2023-02-24T07:51:26;5.00;99.90
5828;DHT22;42583;50.240;8.444;2023-02-24T08:06:35;5.10;99.90
5828;DHT22;42583;50.240;8.444;2023-02-24T08:21:43;5.20;99.90
5828;DHT22;42583;50.240;8.444;2023-02-24T08:36:46;5.40;99.90
5828;DHT22;42583;50.240;8.444;2023-02-24T08:51:56;5.50;99.90
5828;DHT22;42583;50.240;8.444;2023-02-24T09:07:01;5.30;99.90
5828;DHT22;42583;50.240;8.444;2023-02-24T09:22:08;5.40;99.90
5828;DHT22;42583;50.240;8.444;2023-02-24T09:37:28;5.50;99.90
5828;DHT22;42583;50.240;8.444;2023-02-24T09:52:31;5.70;99.90
5828;DHT22;42583;50.240;8.444;2023-02-24T10:07:42;5.70;99.90
5828;DHT22;42583;50.240;8.444;2023-02-24T10:22:50;5.50;99.90
5828;DHT22;42583;50.240;8.444;2023-02-24T10:37:53;5.60;99.90
5828;DHT22;42583;50.240;8.444;2023-02-24T10:53:13;6.00;99.90
5828;DHT22;42583;50.240;8.444;2023-02-24T11:08:35;6.60;99.90
5828;DHT22;42583;50.240;8.444;2023-02-24T11:23:48;6.40;99.90
5828;DHT22;42583;50.240;8.444;2023-02-24T11:39:06;7.00;99.90
5828;DHT22;42583;50.240;8.444;2023-02-24T11:54:14;7.40;99.90
5828;DHT22;42583;50.240;8.444;2023-02-24T12:09:21;7.20;98.50
5828;DHT22;42583;50.240;8.444;2023-02-24T12:24:23;6.50;97.10
5828;DHT22;42583;50.240;8.444;2023-02-24T12:54:40;6.20;99.00
5828;DHT22;42583;50.240;8.444;2023-02-24T13:09:59;6.00;98.70
5828;DHT22;42583;50.240;8.444;2023-02-24T13:25:16;5.70;99.80
5828;DHT22;42583;50.240;8.444;2023-02-24T13:55:39;5.50;99.90
5828;DHT22;42583;50.240;8.444;2023-02-24T14:10:44;5.40;99.90
5828;DHT22;42583;50.240;8.444;2023-02-24T14:25:45;5.40;99.90
5828;DHT22;42583;50.240;8.444;2023-02-24T14:40:48;5.30;99.90
5828;DHT22;42583;50.240;8.444;2023-02-24T14:55:50;5.40;99.90
5828;DHT22;42583;50.240;8.444;2023-02-24T15:10:55;5.30;99.90
5828;DHT22;42583;50.240;8.444;2023-02-24T15:25:56;5.10;99.90
5828;DHT22;42583;50.240;8.444;2023-02-24T15:40:59;5.20;99.90
5828;DHT22;42583;50.240;8.444;2023-02-24T15:56:00;5.00;99.90
5828;DHT22;42583;50.240;8.444;2023-02-24T16:11:01;4.60;99.90
5828;DHT22;42583;50.240;8.444;2023-02-24T16:26:01;4.00;99.90
5828;DHT22;42583;50.240;8.444;2023-02-24T16:41:02;3.40;99.90
5828;DHT22;42583;50.240;8.444;2023-02-24T16:56:03;3.10;99.90
5828;DHT22;42583;50.240;8.444;2023-02-24T17:11:04;2.90;99.90
5828;DHT22;42583;50.240;8.444;2023-02-24T17:26:05;2.70;99.90
5828;DHT22;42583;50.240;8.444;2023-02-24T17:41:06;2.70;99.90
5828;DHT22;42583;50.240;8.444;2023-02-24T17:56:07;2.60;99.90
5828;DHT22;42583;50.240;8.444;2023-02-24T18:11:08;2.60;99.90
5828;DHT22;42583;50.240;8.444;2023-02-24T18:26:12;2.60;99.90
5828;DHT22;42583;50.240;8.444;2023-02-24T18:41:15;2.60;99.90
5828;DHT22;42583;50.240;8.444;2023-02-24T18:56:23;2.50;99.90
5828;DHT22;42583;50.240;8.444;2023-02-24T19:11:24;2.50;99.90
5828;DHT22;42583;50.240;8.444;2023-02-24T19:26:25;2.60;99.90
5828;DHT22;42583;50.240;8.444;2023-02-24T19:41:26;2.60;99.90
5828;DHT22;42583;50.240;8.444;2023-02-24T19:56:29;2.70;99.90
5828;DHT22;42583;50.240;8.444;2023-02-24T20:11:30;2.70;99.90
5828;DHT22;42583;50.240;8.444;2023-02-24T20:26:34;2.80;99.90
5828;DHT22;42583;50.240;8.444;2023-02-24T20:41:35;2.80;99.90
5828;DHT22;42583;50.240;8.444;2023-02-24T20:56:36;2.80;99.90
5828;DHT22;42583;50.240;8.444;2023-02-24T21:11:37;2.80;99.90
5828;DHT22;42583;50.240;8.444;2023-02-24T21:26:38;2.80;99.90
5828;DHT22;42583;50.240;8.444;2023-02-24T21:41:42;2.80;99.90
5828;DHT22;42583;50.240;8.444;2023-02-24T21:56:44;2.80;99.90
5828;DHT22;42583;50.240;8.444;2023-02-24T22:11:46;2.70;99.90
5828;DHT22;42583;50.240;8.444;2023-02-24T22:26:47;2.60;99.90
5828;DHT22;42583;50.240;8.444;2023-02-24T22:41:49;2.60;99.90
5828;DHT22;42583;50.240;8.444;2023-02-24T22:56:53;2.60;99.90
5828;DHT22;42583;50.240;8.444;2023-02-24T23:11:54;2.60;99.90
5828;DHT22;42583;50.240;8.444;2023-02-24T23:26:55;2.50;99.90
5828;DHT22;42583;50.240;8.444;2023-02-24T23:41:57;2.50;99.90
5828;DHT22;42583;50.240;8.444;2023-02-24T23:56:57;2.50;99.90
